sensor_id;sensor_type;location;lat;lon;timestamp;temperature;humidity
21612;DHT22;47005;52.292;13.452;2023-06-24T00:02:10;18.10;99.90
21612;DHT22;47005;52.292;13.452;2023-06-24T00:04:36;18.00;99.90
21612;DHT22;47005;52.292;13.452;2023-06-24T00:07:01;18.10;99.90
21612;DHT22;47005;52.292;13.452;2023-06-24T00:09:28;18.10;99.90
21612;DHT22;47005;52.292;13.452;2023-06-24T00:11:55;18.10;99.90
21612;DHT22;47005;52.292;13.452;2023-06-24T00:14:22;18.10;99.90
21612;DHT22;47005;52.292;13.452;2023-06-24T00:16:50;18.10;99.90
21612;DHT22;47005;52.292;13.452;2023-06-24T00:19:20;18.10;99.90
21612;DHT22;47005;52.292;13.452;2023-06-24T00:21:47;18.10;99.90
21612;DHT22;47005;52.292;13.452;2023-06-24T00:24:13;18.10;99.90
21612;DHT22;47005;52.292;13.452;2023-06-24T00:26:39;18.10;99.90
21612;DHT22;47005;52.292;13.452;2023-06-24T00:29:04;18.10;99.90
21612;DHT22;47005;52.292;13.452;2023-06-24T00:31:30;18.10;99.90
21612;DHT22;47005;52.292;13.452;2023-06-24T00:33:55;18.10;99.90
21612;DHT22;47005;52.292;13.452;2023-06-24T00:36:21;18.10;99.90
21612;DHT22;47005;52.292;13.452;2023-06-24T00:38:47;18.10;99.90
21612;DHT22;47005;52.292;13.452;2023-06-24T00:41:16;18.10;99.90
21612;DHT22;47005;52.292;13.452;2023-06-24T00:43:42;18.10;99.90
21612;DHT22;47005;52.292;13.452;2023-06-24T00:46:08;18.10;99.90
21612;DHT22;47005;52.292;13.452;2023-06-24T00:48:33;18.10;99.90
21612;DHT22;47005;52.292;13.452;2023-06-24T00:51:01;18.10;99.90
21612;DHT22;47005;52.292;13.452;2023-06-24T00:53:27;18.10;99.90
21612;DHT22;47005;52.292;13.452;2023-06-24T00:55:54;18.10;99.90
21612;DHT22;47005;52.292;13.452;2023-06-24T00:58:21;18.10;99.90
21612;DHT22;47005;52.292;13.452;2023-06-24T01:00:47;18.10;99.90
21612;DHT22;47005;52.292;13.452;2023-06-24T01:03:23;18.10;99.90
21612;DHT22;47005;52.292;13.452;2023-06-24T01:05:48;18.10;99.90
21612;DHT22;47005;52.292;13.452;2023-06-24T01:08:15;18.10;99.90
21612;DHT22;47005;52.292;13.452;2023-06-24T01:10:42;18.10;99.90
21612;DHT22;47005;52.292;13.452;2023-06-24T01:13:08;18.00;99.90
21612;DHT22;47005;52.292;13.452;2023-06-24T01:15:34;18.00;99.90
21612;DHT22;47005;52.292;13.452;2023-06-24T01:20:55;18.10;99.90
21612;DHT22;47005;52.292;13.452;2023-06-24T01:32:32;18.00;99.90
21612;DHT22;47005;52.292;13.452;2023-06-24T01:35:15;18.00;99.90
21612;DHT22;47005;52.292;13.452;2023-06-24T01:37:44;18.00;99.90
21612;DHT22;47005;52.292;13.452;2023-06-24T01:42:48;18.00;99.90
21612;DHT22;47005;52.292;13.452;2023-06-24T01:45:23;17.90;99.90
21612;DHT22;47005;52.292;13.452;2023-06-24T01:47:59;17.90;99.90
21612;DHT22;47005;52.292;13.452;2023-06-24T01:50:26;17.90;99.90
21612;DHT22;47005;52.292;13.452;2023-06-24T01:52:55;17.90;99.90
21612;DHT22;47005;52.292;13.452;2023-06-24T01:55:23;17.90;99.90
21612;DHT22;47005;52.292;13.452;2023-06-24T01:57:50;17.90;99.90
21612;DHT22;47005;52.292;13.452;2023-06-24T02:00:17;17.90;99.90
21612;DHT22;47005;52.292;13.452;2023-06-24T02:02:43;17.90;99.90
21612;DHT22;47005;52.292;13.452;2023-06-24T02:05:10;17.90;99.90
21612;DHT22;47005;52.292;13.452;2023-06-24T02:07:38;17.80;99.90
21612;DHT22;47005;52.292;13.452;2023-06-24T02:10:05;17.80;99.90
21612;DHT22;47005;52.292;13.452;2023-06-24T02:12:32;17.80;99.90
21612;DHT22;47005;52.292;13.452;2023-06-24T02:14:59;17.80;99.90
21612;DHT22;47005;52.292;13.452;2023-06-24T02:17:25;17.80;99.90
21612;DHT22;47005;52.292;13.452;2023-06-24T02:19:55;17.70;99.90
21612;DHT22;47005;52.292;13.452;2023-06-24T02:22:21;17.70;99.90
21612;DHT22;47005;52.292;13.452;2023-06-24T02:24:49;17.70;99.90
21612;DHT22;47005;52.292;13.452;2023-06-24T02:27:16;17.70;99.90
21612;DHT22;47005;52.292;13.452;2023-06-24T02:29:42;17.70;99.90
21612;DHT22;47005;52.292;13.452;2023-06-24T02:32:08;17.70;99.90
21612;DHT22;47005;52.292;13.452;2023-06-24T02:34:34;17.70;99.90
21612;DHT22;47005;52.292;13.452;2023-06-24T02:37:00;17.70;99.90
21612;DHT22;47005;52.292;13.452;2023-06-24T02:39:26;17.70;99.90
21612;DHT22;47005;52.292;13.452;2023-06-24T02:41:52;17.70;99.90
21612;DHT22;47005;52.292;13.452;2023-06-24T02:44:17;17.60;99.90
21612;DHT22;47005;52.292;13.452;2023-06-24T02:46:45;17.60;99.90
21612;DHT22;47005;52.292;13.452;2023-06-24T02:49:13;17.60;99.90
21612;DHT22;47005;52.292;13.452;2023-06-24T02:51:41;17.60;99.90
21612;DHT22;47005;52.292;13.452;2023-06-24T02:54:07;17.60;99.90
21612;DHT22;47005;52.292;13.452;2023-06-24T02:56:34;17.60;99.90
21612;DHT22;47005;52.292;13.452;2023-06-24T02:59:00;17.60;99.90
21612;DHT22;47005;52.292;13.452;2023-06-24T03:01:26;17.60;99.90
21612;DHT22;47005;52.292;13.452;2023-06-24T03:03:59;17.50;99.90
21612;DHT22;47005;52.292;13.452;2023-06-24T03:06:25;17.50;99.90
21612;DHT22;47005;52.292;13.452;2023-06-24T03:08:52;17.50;99.90
21612;DHT22;47005;52.292;13.452;2023-06-24T03:11:18;17.50;99.90
21612;DHT22;47005;52.292;13.452;2023-06-24T03:13:44;17.50;99.90
21612;DHT22;47005;52.292;13.452;2023-06-24T03:16:10;17.50;99.90
21612;DHT22;47005;52.292;13.452;2023-06-24T03:18:46;17.50;99.90
21612;DHT22;47005;52.292;13.452;2023-06-24T03:21:12;17.40;99.90
21612;DHT22;47005;52.292;13.452;2023-06-24T03:23:38;17.50;99.90
21612;DHT22;47005;52.292;13.452;2023-06-24T03:26:05;17.40;99.90
21612;DHT22;47005;52.292;13.452;2023-06-24T03:28:31;17.40;99.90
21612;DHT22;47005;52.292;13.452;2023-06-24T03:30:57;17.40;99.90
21612;DHT22;47005;52.292;13.452;2023-06-24T03:33:23;17.40;99.90
21612;DHT22;47005;52.292;13.452;2023-06-24T03:35:50;17.40;99.90
21612;DHT22;47005;52.292;13.452;2023-06-24T03:38:16;17.40;99.90
21612;DHT22;47005;52.292;13.452;2023-06-24T03:40:42;17.30;99.90
21612;DHT22;47005;52.292;13.452;2023-06-24T03:43:09;17.30;99.90
21612;DHT22;47005;52.292;13.452;2023-06-24T03:45:35;17.30;99.90
21612;DHT22;47005;52.292;13.452;2023-06-24T03:48:00;17.30;99.90
21612;DHT22;47005;52.292;13.452;2023-06-24T03:50:26;17.30;99.90
21612;DHT22;47005;52.292;13.452;2023-06-24T03:52:52;17.30;99.90
21612;DHT22;47005;52.292;13.452;2023-06-24T03:55:17;17.30;99.90
21612;DHT22;47005;52.292;13.452;2023-06-24T03:57:43;17.30;99.90
21612;DHT22;47005;52.292;13.452;2023-06-24T04:00:09;17.20;99.90
21612;DHT22;47005;52.292;13.452;2023-06-24T04:02:41;17.30;99.90
21612;DHT22;47005;52.292;13.452;2023-06-24T04:05:07;17.20;99.90
21612;DHT22;47005;52.292;13.452;2023-06-24T04:07:33;17.20;99.90
21612;DHT22;47005;52.292;13.452;2023-06-24T04:10:01;17.20;99.90
21612;DHT22;47005;52.292;13.452;2023-06-24T04:12:27;17.20;99.90
21612;DHT22;47005;52.292;13.452;2023-06-24T04:14:53;17.20;99.90
21612;DHT22;47005;52.292;13.452;2023-06-24T04:17:18;17.20;99.90
21612;DHT22;47005;52.292;13.452;2023-06-24T04:19:44;17.20;99.90
21612;DHT22;47005;52.292;13.452;2023-06-24T04:22:10;17.20;99.90
21612;DHT22;47005;52.292;13.452;2023-06-24T04:24:35;17.20;99.90
21612;DHT22;47005;52.292;13.452;2023-06-24T04:27:01;17.20;99.90
21612;DHT22;47005;52.292;13.452;2023-06-24T04:29:27;17.20;99.90
21612;DHT22;47005;52.292;13.452;2023-06-24T04:31:52;17.20;99.90
21612;DHT22;47005;52.292;13.452;2023-06-24T04:34:18;17.20;99.90
21612;DHT22;47005;52.292;13.452;2023-06-24T04:36:44;17.20;99.90
21612;DHT22;47005;52.292;13.452;2023-06-24T04:39:09;17.20;99.90
21612;DHT22;47005;52.292;13.452;2023-06-24T04:41:35;17.20;99.90
21612;DHT22;47005;52.292;13.452;2023-06-24T04:44:00;17.20;99.90
21612;DHT22;47005;52.292;13.452;2023-06-24T04:46:26;17.20;99.90
21612;DHT22;47005;52.292;13.452;2023-06-24T04:48:52;17.20;99.90
21612;DHT22;47005;52.292;13.452;2023-06-24T04:51:17;17.20;99.90
21612;DHT22;47005;52.292;13.452;2023-06-24T04:53:43;17.20;99.90
21612;DHT22;47005;52.292;13.452;2023-06-24T04:56:08;17.20;99.90
21612;DHT22;47005;52.292;13.452;2023-06-24T04:58:34;17.10;99.90
21612;DHT22;47005;52.292;13.452;2023-06-24T05:01:00;17.20;99.90
21612;DHT22;47005;52.292;13.452;2023-06-24T05:03:25;17.10;99.90
21612;DHT22;47005;52.292;13.452;2023-06-24T05:05:51;17.10;99.90
21612;DHT22;47005;52.292;13.452;2023-06-24T05:08:17;17.10;99.90
21612;DHT22;47005;52.292;13.452;2023-06-24T05:10:42;17.10;99.90
21612;DHT22;47005;52.292;13.452;2023-06-24T05:13:08;17.20;99.90
21612;DHT22;47005;52.292;13.452;2023-06-24T05:15:33;17.10;99.90
21612;DHT22;47005;52.292;13.452;2023-06-24T05:17:59;17.10;99.90
21612;DHT22;47005;52.292;13.452;2023-06-24T05:20:25;17.10;99.90
21612;DHT22;47005;52.292;13.452;2023-06-24T05:22:50;17.10;99.90
21612;DHT22;47005;52.292;13.452;2023-06-24T05:25:16;17.10;99.90
21612;DHT22;47005;52.292;13.452;2023-06-24T05:27:42;17.10;99.90
21612;DHT22;47005;52.292;13.452;2023-06-24T05:30:10;17.10;99.90
21612;DHT22;47005;52.292;13.452;2023-06-24T05:32:36;17.10;99.90
21612;DHT22;47005;52.292;13.452;2023-06-24T05:35:01;17.10;99.90
21612;DHT22;47005;52.292;13.452;2023-06-24T05:37:27;17.10;99.90
21612;DHT22;47005;52.292;13.452;2023-06-24T05:39:53;17.10;99.90
21612;DHT22;47005;52.292;13.452;2023-06-24T05:42:19;17.10;99.90
21612;DHT22;47005;52.292;13.452;2023-06-24T05:44:44;17.20;99.90
21612;DHT22;47005;52.292;13.452;2023-06-24T05:47:10;17.20;99.90
21612;DHT22;47005;52.292;13.452;2023-06-24T05:49:36;17.20;99.90
21612;DHT22;47005;52.292;13.452;2023-06-24T05:52:02;17.20;99.90
21612;DHT22;47005;52.292;13.452;2023-06-24T05:54:28;17.20;99.90
21612;DHT22;47005;52.292;13.452;2023-06-24T05:56:53;17.30;99.90
21612;DHT22;47005;52.292;13.452;2023-06-24T05:59:19;17.30;99.90
21612;DHT22;47005;52.292;13.452;2023-06-24T06:01:44;17.30;99.90
21612;DHT22;47005;52.292;13.452;2023-06-24T06:04:10;17.30;99.90
21612;DHT22;47005;52.292;13.452;2023-06-24T06:06:36;17.30;99.90
21612;DHT22;47005;52.292;13.452;2023-06-24T06:09:01;17.40;99.90
21612;DHT22;47005;52.292;13.452;2023-06-24T06:11:28;17.40;99.90
21612;DHT22;47005;52.292;13.452;2023-06-24T06:13:53;17.40;99.90
21612;DHT22;47005;52.292;13.452;2023-06-24T06:16:19;17.40;99.90
21612;DHT22;47005;52.292;13.452;2023-06-24T06:18:45;17.40;99.90
21612;DHT22;47005;52.292;13.452;2023-06-24T06:21:10;17.50;99.90
21612;DHT22;47005;52.292;13.452;2023-06-24T06:23:36;17.50;99.90
21612;DHT22;47005;52.292;13.452;2023-06-24T06:26:02;17.50;99.90
21612;DHT22;47005;52.292;13.452;2023-06-24T06:28:27;17.50;99.90
21612;DHT22;47005;52.292;13.452;2023-06-24T06:30:53;17.60;99.90
21612;DHT22;47005;52.292;13.452;2023-06-24T06:33:19;17.60;99.90
21612;DHT22;47005;52.292;13.452;2023-06-24T06:35:45;17.60;99.90
21612;DHT22;47005;52.292;13.452;2023-06-24T06:38:11;17.70;99.90
21612;DHT22;47005;52.292;13.452;2023-06-24T06:40:36;17.70;99.90
21612;DHT22;47005;52.292;13.452;2023-06-24T06:43:02;17.70;99.90
21612;DHT22;47005;52.292;13.452;2023-06-24T06:45:27;17.80;99.90
21612;DHT22;47005;52.292;13.452;2023-06-24T06:47:53;17.80;99.90
21612;DHT22;47005;52.292;13.452;2023-06-24T06:50:19;17.90;99.90
21612;DHT22;47005;52.292;13.452;2023-06-24T06:52:44;17.80;99.90
21612;DHT22;47005;52.292;13.452;2023-06-24T06:55:10;17.90;99.90
21612;DHT22;47005;52.292;13.452;2023-06-24T06:57:36;17.90;99.90
21612;DHT22;47005;52.292;13.452;2023-06-24T07:00:02;17.90;99.90
21612;DHT22;47005;52.292;13.452;2023-06-24T07:02:27;17.90;99.90
21612;DHT22;47005;52.292;13.452;2023-06-24T07:04:53;18.00;99.90
21612;DHT22;47005;52.292;13.452;2023-06-24T07:07:19;18.00;99.90
21612;DHT22;47005;52.292;13.452;2023-06-24T07:09:44;18.00;99.90
21612;DHT22;47005;52.292;13.452;2023-06-24T07:12:12;18.00;99.90
21612;DHT22;47005;52.292;13.452;2023-06-24T07:14:39;18.00;99.90
21612;DHT22;47005;52.292;13.452;2023-06-24T07:17:05;18.10;99.90
21612;DHT22;47005;52.292;13.452;2023-06-24T07:19:31;18.00;99.90
21612;DHT22;47005;52.292;13.452;2023-06-24T07:21:59;18.10;99.90
21612;DHT22;47005;52.292;13.452;2023-06-24T07:24:25;18.10;99.90
21612;DHT22;47005;52.292;13.452;2023-06-24T07:26:51;18.10;99.90
21612;DHT22;47005;52.292;13.452;2023-06-24T07:29:17;18.10;99.90
21612;DHT22;47005;52.292;13.452;2023-06-24T07:31:43;18.10;99.90
21612;DHT22;47005;52.292;13.452;2023-06-24T07:34:09;18.10;99.90
21612;DHT22;47005;52.292;13.452;2023-06-24T07:36:34;18.20;99.90
21612;DHT22;47005;52.292;13.452;2023-06-24T07:39:00;18.20;99.90
21612;DHT22;47005;52.292;13.452;2023-06-24T07:41:26;18.20;99.90
21612;DHT22;47005;52.292;13.452;2023-06-24T07:43:51;18.20;99.90
21612;DHT22;47005;52.292;13.452;2023-06-24T07:46:17;18.30;99.90
21612;DHT22;47005;52.292;13.452;2023-06-24T07:48:43;18.30;99.90
21612;DHT22;47005;52.292;13.452;2023-06-24T07:51:09;18.30;99.90
21612;DHT22;47005;52.292;13.452;2023-06-24T07:53:35;18.40;99.90
21612;DHT22;47005;52.292;13.452;2023-06-24T07:56:00;18.40;99.90
21612;DHT22;47005;52.292;13.452;2023-06-24T07:58:26;18.40;99.90
21612;DHT22;47005;52.292;13.452;2023-06-24T08:00:51;18.50;99.90
21612;DHT22;47005;52.292;13.452;2023-06-24T08:03:17;18.50;99.90
21612;DHT22;47005;52.292;13.452;2023-06-24T08:05:43;18.50;99.90
21612;DHT22;47005;52.292;13.452;2023-06-24T08:08:09;18.50;99.90
21612;DHT22;47005;52.292;13.452;2023-06-24T08:10:34;18.50;99.90
21612;DHT22;47005;52.292;13.452;2023-06-24T08:13:00;18.50;99.90
21612;DHT22;47005;52.292;13.452;2023-06-24T08:15:26;18.60;99.90
21612;DHT22;47005;52.292;13.452;2023-06-24T08:17:52;18.60;99.90
21612;DHT22;47005;52.292;13.452;2023-06-24T08:20:21;18.60;99.90
21612;DHT22;47005;52.292;13.452;2023-06-24T08:22:47;18.60;99.90
21612;DHT22;47005;52.292;13.452;2023-06-24T08:25:13;18.60;99.90
21612;DHT22;47005;52.292;13.452;2023-06-24T08:27:39;18.60;99.90
21612;DHT22;47005;52.292;13.452;2023-06-24T08:30:06;18.70;99.90
21612;DHT22;47005;52.292;13.452;2023-06-24T08:32:32;18.70;99.90
21612;DHT22;47005;52.292;13.452;2023-06-24T08:34:57;18.70;99.90
21612;DHT22;47005;52.292;13.452;2023-06-24T08:37:23;18.80;99.90
21612;DHT22;47005;52.292;13.452;2023-06-24T08:39:48;18.80;99.90
21612;DHT22;47005;52.292;13.452;2023-06-24T08:42:14;18.80;99.90
21612;DHT22;47005;52.292;13.452;2023-06-24T08:44:40;18.90;99.90
21612;DHT22;47005;52.292;13.452;2023-06-24T08:47:06;18.90;99.90
21612;DHT22;47005;52.292;13.452;2023-06-24T08:49:33;18.90;99.90
21612;DHT22;47005;52.292;13.452;2023-06-24T08:52:08;18.90;99.90
21612;DHT22;47005;52.292;13.452;2023-06-24T08:54:38;18.90;99.90
21612;DHT22;47005;52.292;13.452;2023-06-24T08:57:05;19.00;99.90
21612;DHT22;47005;52.292;13.452;2023-06-24T08:59:36;18.90;99.90
21612;DHT22;47005;52.292;13.452;2023-06-24T09:02:03;19.00;99.90
21612;DHT22;47005;52.292;13.452;2023-06-24T09:04:29;19.00;99.90
21612;DHT22;47005;52.292;13.452;2023-06-24T09:06:55;19.10;99.90
21612;DHT22;47005;52.292;13.452;2023-06-24T09:09:21;19.10;99.90
21612;DHT22;47005;52.292;13.452;2023-06-24T09:11:55;19.10;99.90
21612;DHT22;47005;52.292;13.452;2023-06-24T09:14:21;19.10;99.90
21612;DHT22;47005;52.292;13.452;2023-06-24T09:17:00;19.20;99.90
21612;DHT22;47005;52.292;13.452;2023-06-24T09:19:28;19.20;99.90
21612;DHT22;47005;52.292;13.452;2023-06-24T09:21:55;19.30;99.90
21612;DHT22;47005;52.292;13.452;2023-06-24T09:24:21;19.30;99.90
21612;DHT22;47005;52.292;13.452;2023-06-24T09:26:47;19.30;99.90
21612;DHT22;47005;52.292;13.452;2023-06-24T09:29:13;19.30;99.90
21612;DHT22;47005;52.292;13.452;2023-06-24T09:31:49;19.30;99.90
21612;DHT22;47005;52.292;13.452;2023-06-24T09:34:18;19.30;99.90
21612;DHT22;47005;52.292;13.452;2023-06-24T09:36:45;19.30;99.90
21612;DHT22;47005;52.292;13.452;2023-06-24T09:39:11;19.30;99.90
21612;DHT22;47005;52.292;13.452;2023-06-24T09:41:41;19.30;99.90
21612;DHT22;47005;52.292;13.452;2023-06-24T09:44:13;19.30;99.90
21612;DHT22;47005;52.292;13.452;2023-06-24T09:46:41;19.40;99.90
21612;DHT22;47005;52.292;13.452;2023-06-24T09:49:14;19.40;99.90
21612;DHT22;47005;52.292;13.452;2023-06-24T09:51:45;19.50;99.90
21612;DHT22;47005;52.292;13.452;2023-06-24T09:54:12;19.50;99.90
21612;DHT22;47005;52.292;13.452;2023-06-24T09:56:43;19.50;99.90
21612;DHT22;47005;52.292;13.452;2023-06-24T09:59:12;19.50;99.90
21612;DHT22;47005;52.292;13.452;2023-06-24T10:01:39;19.50;99.90
21612;DHT22;47005;52.292;13.452;2023-06-24T10:04:06;19.50;99.90
21612;DHT22;47005;52.292;13.452;2023-06-24T10:06:33;19.60;99.90
21612;DHT22;47005;52.292;13.452;2023-06-24T10:09:01;19.60;99.90
21612;DHT22;47005;52.292;13.452;2023-06-24T10:11:26;19.60;99.90
21612;DHT22;47005;52.292;13.452;2023-06-24T10:13:52;19.60;99.90
21612;DHT22;47005;52.292;13.452;2023-06-24T10:16:19;19.70;99.90
21612;DHT22;47005;52.292;13.452;2023-06-24T10:18:45;19.70;99.90
21612;DHT22;47005;52.292;13.452;2023-06-24T10:21:11;19.70;99.90
21612;DHT22;47005;52.292;13.452;2023-06-24T10:23:52;19.80;99.90
21612;DHT22;47005;52.292;13.452;2023-06-24T10:26:30;19.80;99.90
21612;DHT22;47005;52.292;13.452;2023-06-24T10:34:31;19.80;99.90
21612;DHT22;47005;52.292;13.452;2023-06-24T10:37:07;19.90;99.90
21612;DHT22;47005;52.292;13.452;2023-06-24T10:44:51;20.00;99.90
21612;DHT22;47005;52.292;13.452;2023-06-24T10:47:17;20.00;99.90
21612;DHT22;47005;52.292;13.452;2023-06-24T10:49:43;20.00;99.90
21612;DHT22;47005;52.292;13.452;2023-06-24T10:52:12;20.00;99.90
21612;DHT22;47005;52.292;13.452;2023-06-24T10:54:39;20.10;99.90
21612;DHT22;47005;52.292;13.452;2023-06-24T10:57:06;20.10;99.90
21612;DHT22;47005;52.292;13.452;2023-06-24T10:59:39;20.10;99.90
21612;DHT22;47005;52.292;13.452;2023-06-24T11:02:05;20.10;99.90
21612;DHT22;47005;52.292;13.452;2023-06-24T11:04:30;20.20;99.90
21612;DHT22;47005;52.292;13.452;2023-06-24T11:07:01;20.20;99.90
21612;DHT22;47005;52.292;13.452;2023-06-24T11:09:27;20.20;99.90
21612;DHT22;47005;52.292;13.452;2023-06-24T11:11:53;20.30;99.90
21612;DHT22;47005;52.292;13.452;2023-06-24T11:14:22;20.30;99.90
21612;DHT22;47005;52.292;13.452;2023-06-24T11:16:48;20.30;99.90
21612;DHT22;47005;52.292;13.452;2023-06-24T11:19:13;20.40;99.90
21612;DHT22;47005;52.292;13.452;2023-06-24T11:21:39;20.40;99.90
21612;DHT22;47005;52.292;13.452;2023-06-24T11:24:08;20.40;99.90
21612;DHT22;47005;52.292;13.452;2023-06-24T11:26:33;20.50;99.90
21612;DHT22;47005;52.292;13.452;2023-06-24T11:28:59;20.50;99.90
21612;DHT22;47005;52.292;13.452;2023-06-24T11:31:28;20.50;99.90
21612;DHT22;47005;52.292;13.452;2023-06-24T11:33:53;20.60;99.90
21612;DHT22;47005;52.292;13.452;2023-06-24T11:36:19;20.70;99.90
21612;DHT22;47005;52.292;13.452;2023-06-24T11:38:48;20.70;99.90
21612;DHT22;47005;52.292;13.452;2023-06-24T11:41:15;20.80;99.90
21612;DHT22;47005;52.292;13.452;2023-06-24T11:43:47;20.90;99.90
21612;DHT22;47005;52.292;13.452;2023-06-24T11:46:29;21.10;99.90
21612;DHT22;47005;52.292;13.452;2023-06-24T11:49:08;21.20;99.90
21612;DHT22;47005;52.292;13.452;2023-06-24T11:51:35;21.20;99.90
21612;DHT22;47005;52.292;13.452;2023-06-24T11:54:05;21.40;99.90
21612;DHT22;47005;52.292;13.452;2023-06-24T11:56:34;21.50;99.90
21612;DHT22;47005;52.292;13.452;2023-06-24T11:59:00;21.60;99.90
21612;DHT22;47005;52.292;13.452;2023-06-24T12:01:33;21.70;99.90
21612;DHT22;47005;52.292;13.452;2023-06-24T12:04:13;21.90;99.90
21612;DHT22;47005;52.292;13.452;2023-06-24T12:06:42;22.00;99.90
21612;DHT22;47005;52.292;13.452;2023-06-24T12:09:09;22.20;99.90
21612;DHT22;47005;52.292;13.452;2023-06-24T12:11:35;22.30;99.90
21612;DHT22;47005;52.292;13.452;2023-06-24T12:14:01;22.40;99.90
21612;DHT22;47005;52.292;13.452;2023-06-24T12:16:27;22.50;99.90
21612;DHT22;47005;52.292;13.452;2023-06-24T12:18:53;22.60;99.90
21612;DHT22;47005;52.292;13.452;2023-06-24T12:21:19;22.60;99.90
21612;DHT22;47005;52.292;13.452;2023-06-24T12:23:45;22.60;99.90
21612;DHT22;47005;52.292;13.452;2023-06-24T12:26:14;22.70;99.90
21612;DHT22;47005;52.292;13.452;2023-06-24T12:28:39;22.80;99.90
21612;DHT22;47005;52.292;13.452;2023-06-24T12:31:05;22.90;99.90
21612;DHT22;47005;52.292;13.452;2023-06-24T12:33:31;23.10;99.90
21612;DHT22;47005;52.292;13.452;2023-06-24T12:35:57;23.20;99.90
21612;DHT22;47005;52.292;13.452;2023-06-24T12:38:22;23.50;99.90
21612;DHT22;47005;52.292;13.452;2023-06-24T12:40:48;23.60;99.90
21612;DHT22;47005;52.292;13.452;2023-06-24T12:43:14;23.70;99.90
21612;DHT22;47005;52.292;13.452;2023-06-24T12:45:40;23.70;99.90
21612;DHT22;47005;52.292;13.452;2023-06-24T12:48:09;23.70;99.90
21612;DHT22;47005;52.292;13.452;2023-06-24T12:50:35;23.60;99.90
21612;DHT22;47005;52.292;13.452;2023-06-24T12:53:00;23.50;98.70
21612;DHT22;47005;52.292;13.452;2023-06-24T12:55:27;23.40;95.90
21612;DHT22;47005;52.292;13.452;2023-06-24T12:57:53;23.30;99.20
21612;DHT22;47005;52.292;13.452;2023-06-24T13:00:23;23.20;97.00
21612;DHT22;47005;52.292;13.452;2023-06-24T13:02:49;23.10;97.70
21612;DHT22;47005;52.292;13.452;2023-06-24T13:05:16;23.10;99.60
21612;DHT22;47005;52.292;13.452;2023-06-24T13:07:42;23.00;99.30
21612;DHT22;47005;52.292;13.452;2023-06-24T13:10:08;22.90;97.20
21612;DHT22;47005;52.292;13.452;2023-06-24T13:12:35;22.90;96.50
21612;DHT22;47005;52.292;13.452;2023-06-24T13:15:01;22.80;99.50
21612;DHT22;47005;52.292;13.452;2023-06-24T13:17:27;22.80;99.90
21612;DHT22;47005;52.292;13.452;2023-06-24T13:19:52;22.80;97.70
21612;DHT22;47005;52.292;13.452;2023-06-24T13:22:18;22.80;99.40
21612;DHT22;47005;52.292;13.452;2023-06-24T13:24:44;22.70;95.50
21612;DHT22;47005;52.292;13.452;2023-06-24T13:27:10;22.80;96.40
21612;DHT22;47005;52.292;13.452;2023-06-24T13:29:36;22.80;97.60
21612;DHT22;47005;52.292;13.452;2023-06-24T13:32:02;22.90;97.20
21612;DHT22;47005;52.292;13.452;2023-06-24T13:34:27;23.10;97.00
21612;DHT22;47005;52.292;13.452;2023-06-24T13:36:53;23.10;98.30
21612;DHT22;47005;52.292;13.452;2023-06-24T13:39:20;23.20;97.40
21612;DHT22;47005;52.292;13.452;2023-06-24T13:41:49;23.20;96.00
21612;DHT22;47005;52.292;13.452;2023-06-24T13:44:15;23.20;97.50
21612;DHT22;47005;52.292;13.452;2023-06-24T13:46:40;23.20;97.50
21612;DHT22;47005;52.292;13.452;2023-06-24T13:49:06;23.20;96.00
21612;DHT22;47005;52.292;13.452;2023-06-24T13:51:32;23.10;94.90
21612;DHT22;47005;52.292;13.452;2023-06-24T13:53:57;23.10;97.70
21612;DHT22;47005;52.292;13.452;2023-06-24T13:56:24;23.10;95.50
21612;DHT22;47005;52.292;13.452;2023-06-24T13:58:51;23.10;94.80
21612;DHT22;47005;52.292;13.452;2023-06-24T14:01:17;23.00;95.10
21612;DHT22;47005;52.292;13.452;2023-06-24T14:03:43;23.00;97.00
21612;DHT22;47005;52.292;13.452;2023-06-24T14:06:09;23.00;95.20
21612;DHT22;47005;52.292;13.452;2023-06-24T14:08:35;23.00;95.50
21612;DHT22;47005;52.292;13.452;2023-06-24T14:11:02;22.90;95.00
21612;DHT22;47005;52.292;13.452;2023-06-24T14:13:28;22.90;94.80
21612;DHT22;47005;52.292;13.452;2023-06-24T14:15:55;22.90;95.70
21612;DHT22;47005;52.292;13.452;2023-06-24T14:18:21;22.90;95.20
21612;DHT22;47005;52.292;13.452;2023-06-24T14:20:47;22.90;95.70
21612;DHT22;47005;52.292;13.452;2023-06-24T14:23:12;22.90;94.00
21612;DHT22;47005;52.292;13.452;2023-06-24T14:25:38;22.90;95.00
21612;DHT22;47005;52.292;13.452;2023-06-24T14:28:05;22.90;96.40
21612;DHT22;47005;52.292;13.452;2023-06-24T14:30:31;22.90;96.10
21612;DHT22;47005;52.292;13.452;2023-06-24T14:32:56;22.90;96.10
21612;DHT22;47005;52.292;13.452;2023-06-24T14:35:22;22.90;95.80
21612;DHT22;47005;52.292;13.452;2023-06-24T14:37:48;22.90;95.20
21612;DHT22;47005;52.292;13.452;2023-06-24T14:40:13;22.90;93.40
21612;DHT22;47005;52.292;13.452;2023-06-24T14:42:39;22.90;94.00
21612;DHT22;47005;52.292;13.452;2023-06-24T14:45:05;22.90;95.00
21612;DHT22;47005;52.292;13.452;2023-06-24T14:47:30;22.90;94.60
21612;DHT22;47005;52.292;13.452;2023-06-24T14:49:57;22.90;92.80
21612;DHT22;47005;52.292;13.452;2023-06-24T14:52:23;22.90;94.80
21612;DHT22;47005;52.292;13.452;2023-06-24T14:54:49;22.90;95.40
21612;DHT22;47005;52.292;13.452;2023-06-24T14:57:14;23.00;95.40
21612;DHT22;47005;52.292;13.452;2023-06-24T14:59:41;23.00;95.80
21612;DHT22;47005;52.292;13.452;2023-06-24T15:02:07;23.00;92.90
21612;DHT22;47005;52.292;13.452;2023-06-24T15:04:33;23.00;94.60
21612;DHT22;47005;52.292;13.452;2023-06-24T15:06:59;23.00;92.80
21612;DHT22;47005;52.292;13.452;2023-06-24T15:09:25;23.00;94.20
21612;DHT22;47005;52.292;13.452;2023-06-24T15:11:51;23.00;93.70
21612;DHT22;47005;52.292;13.452;2023-06-24T15:14:17;23.00;92.60
21612;DHT22;47005;52.292;13.452;2023-06-24T15:16:43;23.00;94.50
21612;DHT22;47005;52.292;13.452;2023-06-24T15:19:09;23.00;94.80
21612;DHT22;47005;52.292;13.452;2023-06-24T15:21:34;23.00;92.80
21612;DHT22;47005;52.292;13.452;2023-06-24T15:24:00;23.00;94.50
21612;DHT22;47005;52.292;13.452;2023-06-24T15:26:25;23.10;94.30
21612;DHT22;47005;52.292;13.452;2023-06-24T15:28:51;23.10;94.80
21612;DHT22;47005;52.292;13.452;2023-06-24T15:31:17;23.10;93.20
21612;DHT22;47005;52.292;13.452;2023-06-24T15:33:43;23.10;92.60
21612;DHT22;47005;52.292;13.452;2023-06-24T15:36:08;23.10;93.60
21612;DHT22;47005;52.292;13.452;2023-06-24T15:38:34;23.10;93.10